sensor_id;sensor_type;location;lat;lon;timestamp;P1;durP1;ratioP1;P2;durP2;ratioP2
23266;SDS011;11802;53.160;8.214;2023-04-28T00:00:17;16.17;;;10.10;;
23266;SDS011;11802;53.160;8.214;2023-04-28T00:02:42;17.03;;;9.43;;
23266;SDS011;11802;53.160;8.214;2023-04-28T00:05:09;16.80;;;10.20;;
23266;SDS011;11802;53.160;8.214;2023-04-28T00:07:36;18.33;;;10.50;;
23266;SDS011;11802;53.160;8.214;2023-04-28T00:10:01;17.33;;;10.20;;
23266;SDS011;11802;53.160;8.214;2023-04-28T00:12:27;14.77;;;10.00;;
23266;SDS011;11802;53.160;8.214;2023-04-28T00:14:52;17.27;;;10.20;;
23266;SDS011;11802;53.160;8.214;2023-04-28T00:17:18;18.53;;;9.80;;
23266;SDS011;11802;53.160;8.214;2023-04-28T00:19:43;17.23;;;10.90;;
23266;SDS011;11802;53.160;8.214;2023-04-28T00:22:09;15.50;;;10.03;;
23266;SDS011;11802;53.160;8.214;2023-04-28T00:24:34;17.70;;;10.80;;
23266;SDS011;11802;53.160;8.214;2023-04-28T00:27:00;19.23;;;10.83;;
23266;SDS011;11802;53.160;8.214;2023-04-28T00:29:27;19.20;;;11.43;;
23266;SDS011;11802;53.160;8.214;2023-04-28T00:31:53;18.60;;;10.70;;
23266;SDS011;11802;53.160;8.214;2023-04-28T00:34:18;17.93;;;10.97;;
23266;SDS011;11802;53.160;8.214;2023-04-28T00:36:44;18.70;;;11.80;;
23266;SDS011;11802;53.160;8.214;2023-04-28T00:39:10;16.93;;;11.30;;
23266;SDS011;11802;53.160;8.214;2023-04-28T00:41:35;19.27;;;11.87;;
23266;SDS011;11802;53.160;8.214;2023-04-28T00:44:01;18.30;;;10.97;;
23266;SDS011;11802;53.160;8.214;2023-04-28T00:46:28;17.73;;;11.20;;
23266;SDS011;11802;53.160;8.214;2023-04-28T00:48:56;19.80;;;11.30;;
23266;SDS011;11802;53.160;8.214;2023-04-28T00:51:22;18.30;;;11.67;;
23266;SDS011;11802;53.160;8.214;2023-04-28T00:53:48;18.37;;;11.43;;
23266;SDS011;11802;53.160;8.214;2023-04-28T00:56:14;19.20;;;12.17;;
23266;SDS011;11802;53.160;8.214;2023-04-28T00:58:41;19.20;;;11.17;;
23266;SDS011;11802;53.160;8.214;2023-04-28T01:01:07;22.57;;;12.57;;
23266;SDS011;11802;53.160;8.214;2023-04-28T01:03:34;18.37;;;11.13;;
23266;SDS011;11802;53.160;8.214;2023-04-28T01:06:04;17.27;;;11.23;;
23266;SDS011;11802;53.160;8.214;2023-04-28T01:08:31;18.93;;;12.00;;
23266;SDS011;11802;53.160;8.214;2023-04-28T01:10:58;20.03;;;12.13;;
23266;SDS011;11802;53.160;8.214;2023-04-28T01:13:23;23.07;;;11.60;;
23266;SDS011;11802;53.160;8.214;2023-04-28T01:15:49;19.13;;;11.47;;
23266;SDS011;11802;53.160;8.214;2023-04-28T01:18:15;21.07;;;12.13;;
23266;SDS011;11802;53.160;8.214;2023-04-28T01:20:41;19.47;;;12.03;;
23266;SDS011;11802;53.160;8.214;2023-04-28T01:23:13;23.00;;;12.57;;
23266;SDS011;11802;53.160;8.214;2023-04-28T01:25:40;21.30;;;12.50;;
23266;SDS011;11802;53.160;8.214;2023-04-28T01:28:07;22.53;;;12.60;;
23266;SDS011;11802;53.160;8.214;2023-04-28T01:30:33;21.70;;;12.40;;
23266;SDS011;11802;53.160;8.214;2023-04-28T01:32:59;25.80;;;13.90;;
23266;SDS011;11802;53.160;8.214;2023-04-28T01:35:25;22.20;;;12.80;;
23266;SDS011;11802;53.160;8.214;2023-04-28T01:37:51;20.03;;;12.40;;
23266;SDS011;11802;53.160;8.214;2023-04-28T01:40:16;22.63;;;12.97;;
23266;SDS011;11802;53.160;8.214;2023-04-28T01:42:42;26.47;;;13.07;;
23266;SDS011;11802;53.160;8.214;2023-04-28T01:45:07;19.87;;;12.27;;
23266;SDS011;11802;53.160;8.214;2023-04-28T01:47:33;24.13;;;12.63;;
23266;SDS011;11802;53.160;8.214;2023-04-28T01:49:59;22.07;;;12.73;;
23266;SDS011;11802;53.160;8.214;2023-04-28T01:52:25;21.47;;;12.90;;
23266;SDS011;11802;53.160;8.214;2023-04-28T01:54:51;21.40;;;13.30;;
23266;SDS011;11802;53.160;8.214;2023-04-28T01:57:17;20.43;;;12.50;;
23266;SDS011;11802;53.160;8.214;2023-04-28T01:59:43;23.83;;;13.50;;
23266;SDS011;11802;53.160;8.214;2023-04-28T02:02:08;26.50;;;14.23;;
23266;SDS011;11802;53.160;8.214;2023-04-28T02:04:34;25.40;;;14.77;;
23266;SDS011;11802;53.160;8.214;2023-04-28T02:07:02;25.20;;;13.33;;
23266;SDS011;11802;53.160;8.214;2023-04-28T02:09:27;24.83;;;14.03;;
23266;SDS011;11802;53.160;8.214;2023-04-28T02:11:53;23.83;;;14.97;;
23266;SDS011;11802;53.160;8.214;2023-04-28T02:14:18;26.37;;;14.27;;
23266;SDS011;11802;53.160;8.214;2023-04-28T02:16:44;23.13;;;13.77;;
23266;SDS011;11802;53.160;8.214;2023-04-28T02:19:09;23.80;;;14.40;;
23266;SDS011;11802;53.160;8.214;2023-04-28T02:21:35;22.93;;;13.87;;
23266;SDS011;11802;53.160;8.214;2023-04-28T02:24:00;25.53;;;14.90;;
23266;SDS011;11802;53.160;8.214;2023-04-28T02:26:26;26.00;;;14.23;;
23266;SDS011;11802;53.160;8.214;2023-04-28T02:28:51;26.73;;;13.97;;
23266;SDS011;11802;53.160;8.214;2023-04-28T02:31:17;25.23;;;14.07;;
23266;SDS011;11802;53.160;8.214;2023-04-28T02:33:42;28.27;;;14.53;;
23266;SDS011;11802;53.160;8.214;2023-04-28T02:36:08;27.67;;;15.87;;
23266;SDS011;11802;53.160;8.214;2023-04-28T02:38:34;25.30;;;14.27;;
23266;SDS011;11802;53.160;8.214;2023-04-28T02:41:03;24.10;;;13.97;;
23266;SDS011;11802;53.160;8.214;2023-04-28T02:43:30;27.80;;;14.33;;
23266;SDS011;11802;53.160;8.214;2023-04-28T02:45:56;25.20;;;14.90;;
23266;SDS011;11802;53.160;8.214;2023-04-28T02:48:22;27.67;;;14.97;;
23266;SDS011;11802;53.160;8.214;2023-04-28T02:50:48;26.73;;;14.97;;
23266;SDS011;11802;53.160;8.214;2023-04-28T02:53:14;29.77;;;15.70;;
23266;SDS011;11802;53.160;8.214;2023-04-28T02:55:40;23.70;;;14.47;;
23266;SDS011;11802;53.160;8.214;2023-04-28T02:58:05;25.83;;;14.93;;
23266;SDS011;11802;53.160;8.214;2023-04-28T03:00:31;22.80;;;13.07;;
23266;SDS011;11802;53.160;8.214;2023-04-28T03:02:56;22.37;;;13.33;;
23266;SDS011;11802;53.160;8.214;2023-04-28T03:05:22;23.50;;;13.07;;
23266;SDS011;11802;53.160;8.214;2023-04-28T03:07:48;22.37;;;12.33;;
23266;SDS011;11802;53.160;8.214;2023-04-28T03:10:13;24.30;;;13.67;;
23266;SDS011;11802;53.160;8.214;2023-04-28T03:12:39;23.47;;;13.80;;
23266;SDS011;11802;53.160;8.214;2023-04-28T03:15:05;30.10;;;15.47;;
23266;SDS011;11802;53.160;8.214;2023-04-28T03:17:33;26.80;;;16.43;;
23266;SDS011;11802;53.160;8.214;2023-04-28T03:20:00;28.80;;;14.73;;
23266;SDS011;11802;53.160;8.214;2023-04-28T03:22:29;26.03;;;14.77;;
23266;SDS011;11802;53.160;8.214;2023-04-28T03:24:54;22.70;;;14.27;;
23266;SDS011;11802;53.160;8.214;2023-04-28T03:27:20;29.63;;;17.07;;
23266;SDS011;11802;53.160;8.214;2023-04-28T03:29:46;27.93;;;17.43;;
23266;SDS011;11802;53.160;8.214;2023-04-28T03:32:11;30.00;;;17.27;;
23266;SDS011;11802;53.160;8.214;2023-04-28T03:34:37;38.30;;;21.37;;
23266;SDS011;11802;53.160;8.214;2023-04-28T03:37:02;40.40;;;22.77;;
23266;SDS011;11802;53.160;8.214;2023-04-28T03:39:28;36.27;;;21.57;;
23266;SDS011;11802;53.160;8.214;2023-04-28T03:41:54;28.77;;;16.80;;
23266;SDS011;11802;53.160;8.214;2023-04-28T03:44:20;27.50;;;15.23;;
23266;SDS011;11802;53.160;8.214;2023-04-28T03:46:47;26.07;;;14.03;;
23266;SDS011;11802;53.160;8.214;2023-04-28T03:49:13;22.33;;;12.60;;
23266;SDS011;11802;53.160;8.214;2023-04-28T03:51:38;19.33;;;11.90;;
23266;SDS011;11802;53.160;8.214;2023-04-28T03:54:04;21.43;;;12.97;;
23266;SDS011;11802;53.160;8.214;2023-04-28T03:56:29;25.13;;;13.53;;
23266;SDS011;11802;53.160;8.214;2023-04-28T03:58:55;20.47;;;12.57;;
23266;SDS011;11802;53.160;8.214;2023-04-28T04:01:20;25.17;;;13.23;;
23266;SDS011;11802;53.160;8.214;2023-04-28T04:03:46;23.10;;;12.73;;
23266;SDS011;11802;53.160;8.214;2023-04-28T04:06:12;22.50;;;13.13;;
23266;SDS011;11802;53.160;8.214;2023-04-28T04:08:37;22.63;;;13.37;;
23266;SDS011;11802;53.160;8.214;2023-04-28T04:11:04;21.00;;;12.97;;
23266;SDS011;11802;53.160;8.214;2023-04-28T04:13:29;22.63;;;13.37;;
23266;SDS011;11802;53.160;8.214;2023-04-28T04:15:55;21.43;;;13.03;;
23266;SDS011;11802;53.160;8.214;2023-04-28T04:18:20;22.00;;;12.80;;
23266;SDS011;11802;53.160;8.214;2023-04-28T04:20:46;20.20;;;12.53;;
23266;SDS011;11802;53.160;8.214;2023-04-28T04:23:13;21.43;;;12.40;;
23266;SDS011;11802;53.160;8.214;2023-04-28T04:25:39;19.13;;;11.73;;
23266;SDS011;11802;53.160;8.214;2023-04-28T04:28:05;19.97;;;11.83;;
23266;SDS011;11802;53.160;8.214;2023-04-28T04:30:30;19.30;;;11.47;;
23266;SDS011;11802;53.160;8.214;2023-04-28T04:32:56;22.07;;;11.67;;
23266;SDS011;11802;53.160;8.214;2023-04-28T04:35:21;19.77;;;11.37;;
23266;SDS011;11802;53.160;8.214;2023-04-28T04:37:47;19.83;;;11.13;;
23266;SDS011;11802;53.160;8.214;2023-04-28T04:40:12;16.37;;;10.53;;
23266;SDS011;11802;53.160;8.214;2023-04-28T04:42:38;19.00;;;10.63;;
23266;SDS011;11802;53.160;8.214;2023-04-28T04:45:03;21.20;;;10.60;;
23266;SDS011;11802;53.160;8.214;2023-04-28T04:47:29;18.30;;;10.70;;
23266;SDS011;11802;53.160;8.214;2023-04-28T04:49:55;17.73;;;10.87;;
23266;SDS011;11802;53.160;8.214;2023-04-28T04:52:21;18.70;;;10.57;;
23266;SDS011;11802;53.160;8.214;2023-04-28T04:54:47;18.23;;;10.37;;
23266;SDS011;11802;53.160;8.214;2023-04-28T04:57:13;18.97;;;10.80;;
23266;SDS011;11802;53.160;8.214;2023-04-28T04:59:38;17.73;;;10.13;;
23266;SDS011;11802;53.160;8.214;2023-04-28T05:02:04;19.33;;;10.60;;
23266;SDS011;11802;53.160;8.214;2023-04-28T05:04:29;15.37;;;9.53;;
23266;SDS011;11802;53.160;8.214;2023-04-28T05:06:55;18.30;;;10.27;;
23266;SDS011;11802;53.160;8.214;2023-04-28T05:09:20;15.93;;;9.40;;
23266;SDS011;11802;53.160;8.214;2023-04-28T05:11:47;21.70;;;9.70;;
23266;SDS011;11802;53.160;8.214;2023-04-28T05:14:13;19.37;;;9.57;;
23266;SDS011;11802;53.160;8.214;2023-04-28T05:16:38;16.20;;;9.60;;
23266;SDS011;11802;53.160;8.214;2023-04-28T05:19:05;19.90;;;9.67;;
23266;SDS011;11802;53.160;8.214;2023-04-28T05:21:31;13.60;;;8.67;;
23266;SDS011;11802;53.160;8.214;2023-04-28T05:23:56;14.27;;;8.93;;
23266;SDS011;11802;53.160;8.214;2023-04-28T05:26:22;15.67;;;8.67;;
23266;SDS011;11802;53.160;8.214;2023-04-28T05:28:48;16.47;;;8.23;;
23266;SDS011;11802;53.160;8.214;2023-04-28T05:31:13;15.57;;;8.30;;
23266;SDS011;11802;53.160;8.214;2023-04-28T05:33:40;15.03;;;8.30;;
23266;SDS011;11802;53.160;8.214;2023-04-28T05:36:05;16.57;;;8.70;;
23266;SDS011;11802;53.160;8.214;2023-04-28T05:38:32;11.43;;;7.40;;
23266;SDS011;11802;53.160;8.214;2023-04-28T05:40:58;15.63;;;7.77;;
23266;SDS011;11802;53.160;8.214;2023-04-28T05:43:24;16.00;;;8.10;;
23266;SDS011;11802;53.160;8.214;2023-04-28T05:45:50;11.97;;;7.60;;
23266;SDS011;11802;53.160;8.214;2023-04-28T05:48:15;17.73;;;8.53;;
23266;SDS011;11802;53.160;8.214;2023-04-28T05:50:41;14.77;;;7.70;;
23266;SDS011;11802;53.160;8.214;2023-04-28T05:53:06;13.73;;;8.17;;
23266;SDS011;11802;53.160;8.214;2023-04-28T05:55:32;13.30;;;7.90;;
23266;SDS011;11802;53.160;8.214;2023-04-28T05:58:00;13.50;;;7.77;;
23266;SDS011;11802;53.160;8.214;2023-04-28T06:00:26;15.90;;;7.77;;
23266;SDS011;11802;53.160;8.214;2023-04-28T06:02:52;11.90;;;7.73;;
23266;SDS011;11802;53.160;8.214;2023-04-28T06:05:17;14.47;;;8.00;;
23266;SDS011;11802;53.160;8.214;2023-04-28T06:07:43;16.33;;;8.23;;
23266;SDS011;11802;53.160;8.214;2023-04-28T06:10:09;14.07;;;8.67;;
23266;SDS011;11802;53.160;8.214;2023-04-28T06:12:34;16.13;;;7.90;;
23266;SDS011;11802;53.160;8.214;2023-04-28T06:15:00;17.47;;;7.93;;
23266;SDS011;11802;53.160;8.214;2023-04-28T06:17:26;14.43;;;7.80;;
23266;SDS011;11802;53.160;8.214;2023-04-28T06:19:51;11.70;;;7.47;;
23266;SDS011;11802;53.160;8.214;2023-04-28T06:22:18;12.33;;;7.70;;
23266;SDS011;11802;53.160;8.214;2023-04-28T06:24:44;15.20;;;7.80;;
23266;SDS011;11802;53.160;8.214;2023-04-28T06:27:10;11.37;;;7.63;;
23266;SDS011;11802;53.160;8.214;2023-04-28T06:29:36;12.47;;;8.03;;
23266;SDS011;11802;53.160;8.214;2023-04-28T06:32:01;12.00;;;6.90;;
23266;SDS011;11802;53.160;8.214;2023-04-28T06:34:27;11.93;;;6.90;;
23266;SDS011;11802;53.160;8.214;2023-04-28T06:36:53;13.10;;;7.60;;
23266;SDS011;11802;53.160;8.214;2023-04-28T06:39:20;12.47;;;8.60;;
23266;SDS011;11802;53.160;8.214;2023-04-28T06:41:46;13.90;;;7.90;;
23266;SDS011;11802;53.160;8.214;2023-04-28T06:44:11;15.10;;;8.07;;
23266;SDS011;11802;53.160;8.214;2023-04-28T06:46:37;14.13;;;7.47;;
23266;SDS011;11802;53.160;8.214;2023-04-28T06:49:03;14.27;;;7.23;;
23266;SDS011;11802;53.160;8.214;2023-04-28T06:51:29;15.03;;;7.57;;
23266;SDS011;11802;53.160;8.214;2023-04-28T06:53:56;12.73;;;7.63;;
23266;SDS011;11802;53.160;8.214;2023-04-28T06:56:22;15.00;;;7.30;;
23266;SDS011;11802;53.160;8.214;2023-04-28T06:58:48;14.43;;;8.13;;
23266;SDS011;11802;53.160;8.214;2023-04-28T07:01:14;15.10;;;7.63;;
23266;SDS011;11802;53.160;8.214;2023-04-28T07:03:40;14.20;;;7.60;;
23266;SDS011;11802;53.160;8.214;2023-04-28T07:06:06;13.50;;;7.27;;
23266;SDS011;11802;53.160;8.214;2023-04-28T07:08:32;15.47;;;7.73;;
23266;SDS011;11802;53.160;8.214;2023-04-28T07:10:58;14.27;;;7.10;;
23266;SDS011;11802;53.160;8.214;2023-04-28T07:13:28;11.97;;;7.57;;
23266;SDS011;11802;53.160;8.214;2023-04-28T07:15:54;13.63;;;6.93;;
23266;SDS011;11802;53.160;8.214;2023-04-28T07:18:20;11.17;;;6.60;;
23266;SDS011;11802;53.160;8.214;2023-04-28T07:20:49;9.57;;;5.97;;
23266;SDS011;11802;53.160;8.214;2023-04-28T07:23:15;10.73;;;6.43;;
23266;SDS011;11802;53.160;8.214;2023-04-28T07:25:40;10.73;;;6.37;;
23266;SDS011;11802;53.160;8.214;2023-04-28T07:28:12;11.87;;;6.70;;
23266;SDS011;11802;53.160;8.214;2023-04-28T07:34:03;9.03;;;6.07;;
23266;SDS011;11802;53.160;8.214;2023-04-28T07:36:29;10.70;;;5.93;;
23266;SDS011;11802;53.160;8.214;2023-04-28T07:38:55;13.77;;;6.37;;
23266;SDS011;11802;53.160;8.214;2023-04-28T07:41:20;8.97;;;5.60;;
23266;SDS011;11802;53.160;8.214;2023-04-28T07:43:46;12.93;;;6.40;;
23266;SDS011;11802;53.160;8.214;2023-04-28T07:46:12;8.50;;;5.40;;
23266;SDS011;11802;53.160;8.214;2023-04-28T07:48:37;9.27;;;5.60;;
23266;SDS011;11802;53.160;8.214;2023-04-28T07:51:03;10.07;;;6.03;;
23266;SDS011;11802;53.160;8.214;2023-04-28T07:53:29;9.37;;;5.60;;
23266;SDS011;11802;53.160;8.214;2023-04-28T07:55:57;10.10;;;5.20;;
23266;SDS011;11802;53.160;8.214;2023-04-28T07:58:23;9.27;;;5.77;;
23266;SDS011;11802;53.160;8.214;2023-04-28T08:00:49;10.00;;;6.13;;
23266;SDS011;11802;53.160;8.214;2023-04-28T08:03:14;13.23;;;6.17;;
23266;SDS011;11802;53.160;8.214;2023-04-28T08:05:40;11.53;;;5.47;;
23266;SDS011;11802;53.160;8.214;2023-04-28T08:08:06;9.10;;;5.57;;
23266;SDS011;11802;53.160;8.214;2023-04-28T08:10:31;9.33;;;5.53;;
23266;SDS011;11802;53.160;8.214;2023-04-28T08:12:57;9.67;;;5.67;;
23266;SDS011;11802;53.160;8.214;2023-04-28T08:15:23;8.33;;;5.47;;
23266;SDS011;11802;53.160;8.214;2023-04-28T08:17:49;9.10;;;5.50;;
23266;SDS011;11802;53.160;8.214;2023-04-28T08:20:15;12.77;;;5.30;;
23266;SDS011;11802;53.160;8.214;2023-04-28T08:22:43;9.57;;;5.43;;
23266;SDS011;11802;53.160;8.214;2023-04-28T08:25:09;10.57;;;5.63;;
23266;SDS011;11802;53.160;8.214;2023-04-28T08:27:35;12.57;;;5.30;;
23266;SDS011;11802;53.160;8.214;2023-04-28T08:30:02;8.37;;;5.37;;
23266;SDS011;11802;53.160;8.214;2023-04-28T08:32:28;10.87;;;5.20;;
23266;SDS011;11802;53.160;8.214;2023-04-28T08:34:54;8.80;;;5.83;;
23266;SDS011;11802;53.160;8.214;2023-04-28T08:37:19;11.37;;;5.43;;
23266;SDS011;11802;53.160;8.214;2023-04-28T08:39:45;10.50;;;5.67;;
23266;SDS011;11802;53.160;8.214;2023-04-28T08:42:11;9.87;;;5.70;;
23266;SDS011;11802;53.160;8.214;2023-04-28T08:44:37;10.03;;;5.07;;
23266;SDS011;11802;53.160;8.214;2023-04-28T08:47:13;12.10;;;5.80;;
23266;SDS011;11802;53.160;8.214;2023-04-28T08:49:38;10.87;;;5.27;;
23266;SDS011;11802;53.160;8.214;2023-04-28T08:52:11;12.60;;;5.27;;
23266;SDS011;11802;53.160;8.214;2023-04-28T08:54:40;9.53;;;5.67;;
23266;SDS011;11802;53.160;8.214;2023-04-28T08:57:10;13.37;;;6.53;;
23266;SDS011;11802;53.160;8.214;2023-04-28T08:59:38;14.57;;;6.60;;
23266;SDS011;11802;53.160;8.214;2023-04-28T09:02:06;8.70;;;5.73;;
23266;SDS011;11802;53.160;8.214;2023-04-28T09:04:32;12.83;;;6.67;;
23266;SDS011;11802;53.160;8.214;2023-04-28T09:06:58;10.13;;;6.43;;
23266;SDS011;11802;53.160;8.214;2023-04-28T09:09:24;10.73;;;5.83;;
23266;SDS011;11802;53.160;8.214;2023-04-28T09:12:01;10.27;;;6.67;;
23266;SDS011;11802;53.160;8.214;2023-04-28T09:14:29;11.70;;;6.30;;
23266;SDS011;11802;53.160;8.214;2023-04-28T09:16:56;8.87;;;5.73;;
23266;SDS011;11802;53.160;8.214;2023-04-28T09:19:22;11.00;;;6.00;;
23266;SDS011;11802;53.160;8.214;2023-04-28T09:21:50;13.47;;;6.20;;
23266;SDS011;11802;53.160;8.214;2023-04-28T09:24:28;9.00;;;6.07;;
23266;SDS011;11802;53.160;8.214;2023-04-28T09:26:58;16.17;;;6.27;;
23266;SDS011;11802;53.160;8.214;2023-04-28T09:29:31;13.17;;;6.03;;
23266;SDS011;11802;53.160;8.214;2023-04-28T09:32:24;11.67;;;6.13;;
23266;SDS011;11802;53.160;8.214;2023-04-28T09:34:52;11.37;;;6.30;;
23266;SDS011;11802;53.160;8.214;2023-04-28T09:37:30;10.20;;;5.83;;
23266;SDS011;11802;53.160;8.214;2023-04-28T09:39:56;11.80;;;6.17;;
23266;SDS011;11802;53.160;8.214;2023-04-28T09:42:37;11.87;;;6.23;;
23266;SDS011;11802;53.160;8.214;2023-04-28T09:45:08;12.43;;;5.87;;
23266;SDS011;11802;53.160;8.214;2023-04-28T09:47:39;16.20;;;6.60;;
23266;SDS011;11802;53.160;8.214;2023-04-28T09:50:06;12.77;;;6.80;;
23266;SDS011;11802;53.160;8.214;2023-04-28T09:52:33;13.90;;;6.10;;
23266;SDS011;11802;53.160;8.214;2023-04-28T09:55:00;11.73;;;6.20;;
23266;SDS011;11802;53.160;8.214;2023-04-28T09:57:29;8.63;;;6.13;;
23266;SDS011;11802;53.160;8.214;2023-04-28T09:59:56;10.70;;;6.53;;
23266;SDS011;11802;53.160;8.214;2023-04-28T10:02:22;13.00;;;5.97;;
23266;SDS011;11802;53.160;8.214;2023-04-28T10:04:49;14.60;;;6.20;;
23266;SDS011;11802;53.160;8.214;2023-04-28T10:07:18;11.27;;;6.57;;
23266;SDS011;11802;53.160;8.214;2023-04-28T10:09:45;10.77;;;6.73;;
23266;SDS011;11802;53.160;8.214;2023-04-28T10:12:14;13.87;;;7.37;;
23266;SDS011;11802;53.160;8.214;2023-04-28T10:14:44;11.43;;;6.63;;
23266;SDS011;11802;53.160;8.214;2023-04-28T10:17:11;10.50;;;6.60;;
23266;SDS011;11802;53.160;8.214;2023-04-28T10:19:38;11.83;;;6.63;;
23266;SDS011;11802;53.160;8.214;2023-04-28T10:27:43;9.17;;;6.70;;
23266;SDS011;11802;53.160;8.214;2023-04-28T10:32:37;13.97;;;7.27;;
23266;SDS011;11802;53.160;8.214;2023-04-28T10:40:33;10.43;;;7.17;;
23266;SDS011;11802;53.160;8.214;2023-04-28T10:42:59;12.43;;;6.97;;
23266;SDS011;11802;53.160;8.214;2023-04-28T10:48:12;17.50;;;7.73;;
23266;SDS011;11802;53.160;8.214;2023-04-28T10:56:08;14.70;;;7.33;;
23266;SDS011;11802;53.160;8.214;2023-04-28T11:06:33;12.80;;;7.03;;
23266;SDS011;11802;53.160;8.214;2023-04-28T11:14:30;13.87;;;7.60;;
23266;SDS011;11802;53.160;8.214;2023-04-28T11:17:01;11.83;;;8.13;;
23266;SDS011;11802;53.160;8.214;2023-04-28T11:21:58;14.33;;;7.77;;
23266;SDS011;11802;53.160;8.214;2023-04-28T11:24:25;13.00;;;7.80;;
23266;SDS011;11802;53.160;8.214;2023-04-28T11:26:57;12.57;;;8.10;;
23266;SDS011;11802;53.160;8.214;2023-04-28T11:29:33;15.70;;;8.67;;
23266;SDS011;11802;53.160;8.214;2023-04-28T11:32:00;12.93;;;7.33;;
23266;SDS011;11802;53.160;8.214;2023-04-28T11:34:30;13.97;;;8.77;;
23266;SDS011;11802;53.160;8.214;2023-04-28T11:36:55;12.03;;;7.97;;
23266;SDS011;11802;53.160;8.214;2023-04-28T11:39:25;13.10;;;8.27;;
23266;SDS011;11802;53.160;8.214;2023-04-28T11:41:55;12.97;;;7.67;;
23266;SDS011;11802;53.160;8.214;2023-04-28T11:44:22;12.73;;;8.57;;
23266;SDS011;11802;53.160;8.214;2023-04-28T11:46:52;12.53;;;7.60;;
23266;SDS011;11802;53.160;8.214;2023-04-28T11:49:24;13.30;;;8.83;;
23266;SDS011;11802;53.160;8.214;2023-04-28T11:52:03;11.37;;;7.47;;
23266;SDS011;11802;53.160;8.214;2023-04-28T11:54:30;14.53;;;8.27;;
23266;SDS011;11802;53.160;8.214;2023-04-28T11:56:56;12.60;;;7.80;;
23266;SDS011;11802;53.160;8.214;2023-04-28T11:59:44;14.23;;;8.53;;
23266;SDS011;11802;53.160;8.214;2023-04-28T12:02:09;14.97;;;7.83;;
23266;SDS011;11802;53.160;8.214;2023-04-28T12:04:36;12.47;;;7.90;;
23266;SDS011;11802;53.160;8.214;2023-04-28T12:07:13;16.23;;;8.13;;
23266;SDS011;11802;53.160;8.214;2023-04-28T12:09:43;14.27;;;8.17;;
23266;SDS011;11802;53.160;8.214;2023-04-28T12:12:10;11.53;;;7.67;;
23266;SDS011;11802;53.160;8.214;2023-04-28T12:17:25;16.07;;;8.23;;
23266;SDS011;11802;53.160;8.214;2023-04-28T12:19:59;13.60;;;7.17;;
23266;SDS011;11802;53.160;8.214;2023-04-28T12:22:25;13.37;;;8.33;;
23266;SDS011;11802;53.160;8.214;2023-04-28T12:25:25;13.90;;;9.10;;
23266;SDS011;11802;53.160;8.214;2023-04-28T12:27:59;11.93;;;8.13;;
23266;SDS011;11802;53.160;8.214;2023-04-28T12:30:27;12.10;;;8.30;;
23266;SDS011;11802;53.160;8.214;2023-04-28T12:32:53;12.10;;;7.80;;
23266;SDS011;11802;53.160;8.214;2023-04-28T12:35:20;13.90;;;8.40;;
23266;SDS011;11802;53.160;8.214;2023-04-28T12:37:46;10.87;;;8.00;;
23266;SDS011;11802;53.160;8.214;2023-04-28T12:40:12;12.87;;;8.30;;
23266;SDS011;11802;53.160;8.214;2023-04-28T12:42:38;13.73;;;8.53;;
23266;SDS011;11802;53.160;8.214;2023-04-28T12:45:04;11.30;;;7.77;;
23266;SDS011;11802;53.160;8.214;2023-04-28T12:47:30;15.10;;;9.37;;
23266;SDS011;11802;53.160;8.214;2023-04-28T12:49:56;12.17;;;8.30;;
23266;SDS011;11802;53.160;8.214;2023-04-28T12:52:21;12.77;;;8.10;;
23266;SDS011;11802;53.160;8.214;2023-04-28T12:54:47;11.90;;;8.57;;
23266;SDS011;11802;53.160;8.214;2023-04-28T12:57:14;14.00;;;8.73;;
23266;SDS011;11802;53.160;8.214;2023-04-28T12:59:42;14.97;;;8.23;;
23266;SDS011;11802;53.160;8.214;2023-04-28T13:02:08;11.70;;;8.07;;
23266;SDS011;11802;53.160;8.214;2023-04-28T13:04:34;16.63;;;9.33;;
23266;SDS011;11802;53.160;8.214;2023-04-28T13:06:59;13.47;;;8.87;;
23266;SDS011;11802;53.160;8.214;2023-04-28T13:09:26;13.33;;;8.10;;
23266;SDS011;11802;53.160;8.214;2023-04-28T13:11:51;13.67;;;8.50;;
23266;SDS011;11802;53.160;8.214;2023-04-28T13:14:20;11.90;;;8.70;;
23266;SDS011;11802;53.160;8.214;2023-04-28T13:16:46;15.37;;;8.37;;
23266;SDS011;11802;53.160;8.214;2023-04-28T13:19:12;14.17;;;8.97;;
23266;SDS011;11802;53.160;8.214;2023-04-28T13:21:42;12.20;;;9.57;;
23266;SDS011;11802;53.160;8.214;2023-04-28T13:24:08;14.63;;;8.90;;
23266;SDS011;11802;53.160;8.214;2023-04-28T13:26:34;13.70;;;10.00;;
23266;SDS011;11802;53.160;8.214;2023-04-28T13:29:01;13.53;;;9.73;;
23266;SDS011;11802;53.160;8.214;2023-04-28T13:31:28;11.77;;;9.50;;
23266;SDS011;11802;53.160;8.214;2023-04-28T13:33:54;16.23;;;10.30;;
23266;SDS011;11802;53.160;8.214;2023-04-28T13:36:20;15.60;;;9.87;;
23266;SDS011;11802;53.160;8.214;2023-04-28T13:38:45;16.47;;;9.70;;
23266;SDS011;11802;53.160;8.214;2023-04-28T13:41:13;11.93;;;9.03;;
23266;SDS011;11802;53.160;8.214;2023-04-28T13:43:42;12.13;;;8.90;;
23266;SDS011;11802;53.160;8.214;2023-04-28T13:46:08;15.67;;;9.37;;
23266;SDS011;11802;53.160;8.214;2023-04-28T13:48:34;15.90;;;9.83;;
23266;SDS011;11802;53.160;8.214;2023-04-28T13:51:01;12.30;;;9.50;;
23266;SDS011;11802;53.160;8.214;2023-04-28T13:53:27;14.47;;;9.67;;
23266;SDS011;11802;53.160;8.214;2023-04-28T13:55:53;14.50;;;9.67;;
23266;SDS011;11802;53.160;8.214;2023-04-28T13:58:21;13.07;;;9.33;;
23266;SDS011;11802;53.160;8.214;2023-04-28T14:00:50;13.67;;;9.97;;
23266;SDS011;11802;53.160;8.214;2023-04-28T14:03:16;15.47;;;10.27;;
23266;SDS011;11802;53.160;8.214;2023-04-28T14:05:43;13.60;;;9.73;;
23266;SDS011;11802;53.160;8.214;2023-04-28T14:08:09;14.80;;;9.87;;
23266;SDS011;11802;53.160;8.214;2023-04-28T14:10:35;16.10;;;9.87;;
23266;SDS011;11802;53.160;8.214;2023-04-28T14:13:00;14.95;;;10.20;;
23266;SDS011;11802;53.160;8.214;2023-04-28T14:15:26;14.55;;;10.20;;
23266;SDS011;11802;53.160;8.214;2023-04-28T14:17:51;15.25;;;10.15;;
23266;SDS011;11802;53.160;8.214;2023-04-28T14:20:17;16.65;;;10.40;;
23266;SDS011;11802;53.160;8.214;2023-04-28T14:22:43;17.65;;;10.35;;
23266;SDS011;11802;53.160;8.214;2023-04-28T14:25:08;14.77;;;10.07;;
23266;SDS011;11802;53.160;8.214;2023-04-28T14:27:34;14.80;;;10.20;;
23266;SDS011;11802;53.160;8.214;2023-04-28T14:29:59;14.82;;;10.23;;
23266;SDS011;11802;53.160;8.214;2023-04-28T14:32:26;13.73;;;9.50;;
23266;SDS011;11802;53.160;8.214;2023-04-28T14:34:51;14.80;;;10.57;;
23266;SDS011;11802;53.160;8.214;2023-04-28T14:37:17;17.27;;;10.20;;
23266;SDS011;11802;53.160;8.214;2023-04-28T14:39:43;15.67;;;10.67;;
23266;SDS011;11802;53.160;8.214;2023-04-28T14:42:09;17.50;;;11.07;;
23266;SDS011;11802;53.160;8.214;2023-04-28T14:44:35;16.63;;;11.10;;
23266;SDS011;11802;53.160;8.214;2023-04-28T14:47:01;15.50;;;11.20;;
23266;SDS011;11802;53.160;8.214;2023-04-28T14:49:28;18.97;;;12.53;;
23266;SDS011;11802;53.160;8.214;2023-04-28T14:51:54;16.33;;;11.30;;
23266;SDS011;11802;53.160;8.214;2023-04-28T14:54:19;15.83;;;11.63;;
23266;SDS011;11802;53.160;8.214;2023-04-28T14:56:48;18.37;;;12.23;;
23266;SDS011;11802;53.160;8.214;2023-04-28T14:59:14;19.07;;;12.60;;
23266;SDS011;11802;53.160;8.214;2023-04-28T15:01:40;16.53;;;13.70;;
23266;SDS011;11802;53.160;8.214;2023-04-28T15:04:06;19.43;;;13.33;;
23266;SDS011;11802;53.160;8.214;2023-04-28T15:06:32;19.07;;;14.17;;
23266;SDS011;11802;53.160;8.214;2023-04-28T15:08:58;20.17;;;13.40;;
23266;SDS011;11802;53.160;8.214;2023-04-28T15:11:23;19.93;;;13.93;;